sensor_id;sensor_type;location;lat;lon;timestamp;pressure;altitude;pressure_sealevel;temperature;humidity
74437;BME280;62868;52.360;30.424;2023-04-03T00:01:25;1021.2;;;9.9;70.3
74437;BME280;62868;52.360;30.424;2023-04-03T00:06:04;1021.1;;;9.8;70.3
74437;BME280;62868;52.360;30.424;2023-04-03T00:11:35;1021.1;;;9.7;70.3
74437;BME280;62868;52.360;30.424;2023-04-03T00:15:53;1021.1;;;9.7;70.4
74437;BME280;62868;52.360;30.424;2023-04-03T00:20:53;1021.1;;;9.7;70.4
74437;BME280;62868;52.360;30.424;2023-04-03T00:26:01;1021.1;;;9.7;70.4
74437;BME280;62868;52.360;30.424;2023-04-03T00:31:03;1021.1;;;9.7;70.3
74437;BME280;62868;52.360;30.424;2023-04-03T00:36:33;1021.2;;;9.7;70.3
74437;BME280;62868;52.360;30.424;2023-04-03T00:41:17;1021.1;;;9.7;70.3
74437;BME280;62868;52.360;30.424;2023-04-03T00:46:03;1021.1;;;9.8;70.2
74437;BME280;62868;52.360;30.424;2023-04-03T00:51:27;1021.1;;;9.8;70.2
74437;BME280;62868;52.360;30.424;2023-04-03T00:55:59;1021.1;;;9.8;70.2
74437;BME280;62868;52.360;30.424;2023-04-03T01:01:33;1021.1;;;9.7;70.2
74437;BME280;62868;52.360;30.424;2023-04-03T01:06:20;1021.1;;;9.6;70.1
74437;BME280;62868;52.360;30.424;2023-04-03T01:10:53;1021.2;;;9.6;70.1
74437;BME280;62868;52.360;30.424;2023-04-03T01:16:25;1021.2;;;9.5;70
74437;BME280;62868;52.360;30.424;2023-04-03T01:21:08;1021.2;;;9.4;70
74437;BME280;62868;52.360;30.424;2023-04-03T01:26:33;1021.2;;;9.3;70
74437;BME280;62868;52.360;30.424;2023-04-03T01:31:20;1021.2;;;9.2;69.9
74437;BME280;62868;52.360;30.424;2023-04-03T01:35:53;1021.2;;;9;70
74437;BME280;62868;52.360;30.424;2023-04-03T01:41:20;1021.2;;;8.9;70
74437;BME280;62868;52.360;30.424;2023-04-03T01:46:09;1021.2;;;8.8;70
74437;BME280;62868;52.360;30.424;2023-04-03T01:51:33;1021.3;;;8.8;70
74437;BME280;62868;52.360;30.424;2023-04-03T01:56:17;1021.3;;;8.8;69.9
74437;BME280;62868;52.360;30.424;2023-04-03T02:01:09;1021.3;;;8.6;70
74437;BME280;62868;52.360;30.424;2023-04-03T02:06:25;1021.4;;;8.5;69.9
74437;BME280;62868;52.360;30.424;2023-04-03T02:10:53;1021.4;;;8.4;69.9
74437;BME280;62868;52.360;30.424;2023-04-03T02:16:35;1021.4;;;8.3;69.8
74437;BME280;62868;52.360;30.424;2023-04-03T02:21:17;1021.5;;;8.1;69.9
74437;BME280;62868;52.360;30.424;2023-04-03T02:26:01;1021.5;;;7.9;69.9
74437;BME280;62868;52.360;30.424;2023-04-03T02:30:53;1021.6;;;7.9;69.8
74437;BME280;62868;52.360;30.424;2023-04-03T02:35:54;1021.6;;;7.8;69.9
74437;BME280;62868;52.360;30.424;2023-04-03T02:41:35;1021.6;;;7.8;69.8
74437;BME280;62868;52.360;30.424;2023-04-03T02:46:19;1021.6;;;7.7;69.9
74437;BME280;62868;52.360;30.424;2023-04-03T02:50:59;1021.7;;;7.7;69.9
74437;BME280;62868;52.360;30.424;2023-04-03T02:56:03;1021.7;;;7.5;69.8
74437;BME280;62868;52.360;30.424;2023-04-03T03:00:53;1021.7;;;7.3;69.9
74437;BME280;62868;52.360;30.424;2023-04-03T03:06:33;1021.7;;;7.2;69.9
74437;BME280;62868;52.360;30.424;2023-04-03T03:11:18;1021.7;;;7.2;69.9
74437;BME280;62868;52.360;30.424;2023-04-03T03:16:04;1021.7;;;7.1;69.9
74437;BME280;62868;52.360;30.424;2023-04-03T03:21:25;1021.7;;;7;69.9
74437;BME280;62868;52.360;30.424;2023-04-03T03:26:04;1021.8;;;6.9;70
74437;BME280;62868;52.360;30.424;2023-04-03T03:31:33;1021.8;;;6.8;70
74437;BME280;62868;52.360;30.424;2023-04-03T03:36:17;1021.8;;;6.8;69.9
74437;BME280;62868;52.360;30.424;2023-04-03T03:41:17;1021.9;;;6.7;69.9
74437;BME280;62868;52.360;30.424;2023-04-03T03:46:31;1021.9;;;6.6;70
74437;BME280;62868;52.360;30.424;2023-04-03T03:51:03;1022;;;6.6;69.9
74437;BME280;62868;52.360;30.424;2023-04-03T03:56:17;1022;;;6.6;70
74437;BME280;62868;52.360;30.424;2023-04-03T04:01:17;1022;;;6.6;70
74437;BME280;62868;52.360;30.424;2023-04-03T04:06:11;1022;;;6.6;70
74437;BME280;62868;52.360;30.424;2023-04-03T04:11:21;1022;;;6.5;70.1
74437;BME280;62868;52.360;30.424;2023-04-03T04:16:04;1022;;;6.4;70.1
74437;BME280;62868;52.360;30.424;2023-04-03T04:21:17;1022;;;6.4;70
74437;BME280;62868;52.360;30.424;2023-04-03T04:26:11;1022;;;6.4;70.1
74437;BME280;62868;52.360;30.424;2023-04-03T04:31:17;1022.1;;;6.4;70.1
74437;BME280;62868;52.360;30.424;2023-04-03T04:36:33;1022.2;;;6.3;70.1
74437;BME280;62868;52.360;30.424;2023-04-03T04:41:09;1022.2;;;6.2;70.1
74437;BME280;62868;52.360;30.424;2023-04-03T04:46:11;1022.2;;;6.2;70.1
74437;BME280;62868;52.360;30.424;2023-04-03T04:51:27;1022.2;;;6.2;70
74437;BME280;62868;52.360;30.424;2023-04-03T04:56:35;1022.2;;;6.2;70
74437;BME280;62868;52.360;30.424;2023-04-03T05:01:33;1022.2;;;6.2;70
74437;BME280;62868;52.360;30.424;2023-04-03T05:05:59;1022.3;;;6.2;69.9
74437;BME280;62868;52.360;30.424;2023-04-03T05:11:17;1022.3;;;6.1;69.8
74437;BME280;62868;52.360;30.424;2023-04-03T05:15:53;1022.3;;;6;69.7
74437;BME280;62868;52.360;30.424;2023-04-03T05:21:07;1022.3;;;5.8;69.8
74437;BME280;62868;52.360;30.424;2023-04-03T05:26:35;1022.4;;;5.8;69.7
74437;BME280;62868;52.360;30.424;2023-04-03T05:30:54;1022.4;;;5.7;69.7
74437;BME280;62868;52.360;30.424;2023-04-03T05:36:17;1022.5;;;5.6;69.7
74437;BME280;62868;52.360;30.424;2023-04-03T05:40:54;1022.5;;;5.7;69.7
74437;BME280;62868;52.360;30.424;2023-04-03T05:46:18;1022.6;;;5.6;69.7
74437;BME280;62868;52.360;30.424;2023-04-03T05:51:36;1022.6;;;5.6;69.6
74437;BME280;62868;52.360;30.424;2023-04-03T05:56:09;1022.7;;;5.5;69.6
74437;BME280;62868;52.360;30.424;2023-04-03T06:01:17;1022.7;;;5.5;69.6
74437;BME280;62868;52.360;30.424;2023-04-03T06:06:17;1022.7;;;5.5;69.6
74437;BME280;62868;52.360;30.424;2023-04-03T06:11:08;1022.8;;;5.4;69.6
74437;BME280;62868;52.360;30.424;2023-04-03T06:15:55;1022.8;;;5.4;69.5
74437;BME280;62868;52.360;30.424;2023-04-03T06:20:53;1022.9;;;5.4;69.6
74437;BME280;62868;52.360;30.424;2023-04-03T06:26:09;1022.9;;;5.4;69.5
74437;BME280;62868;52.360;30.424;2023-04-03T06:31:17;1023;;;5.4;69.5
74437;BME280;62868;52.360;30.424;2023-04-03T06:36:00;1023;;;5.3;69.5
74437;BME280;62868;52.360;30.424;2023-04-03T06:41:32;1023.1;;;5.3;69.4
74437;BME280;62868;52.360;30.424;2023-04-03T06:46:04;1023.1;;;5.3;69.4
74437;BME280;62868;52.360;30.424;2023-04-03T06:51:19;1023.1;;;5.3;69.3
74437;BME280;62868;52.360;30.424;2023-04-03T06:55:53;1023.1;;;5.3;69.3
74437;BME280;62868;52.360;30.424;2023-04-03T07:01:18;1023.2;;;5.4;69.2
74437;BME280;62868;52.360;30.424;2023-04-03T07:06:35;1023.2;;;5.5;69.1
74437;BME280;62868;52.360;30.424;2023-04-03T07:10:54;1023.3;;;5.5;69.1
74437;BME280;62868;52.360;30.424;2023-04-03T07:16:34;1023.3;;;5.4;69.1
74437;BME280;62868;52.360;30.424;2023-04-03T07:21:07;1023.4;;;5.5;69
74437;BME280;62868;52.360;30.424;2023-04-03T07:26:17;1023.4;;;5.5;68.9
74437;BME280;62868;52.360;30.424;2023-04-03T07:31:32;1023.5;;;5.4;68.8
74437;BME280;62868;52.360;30.424;2023-04-03T07:36:00;1023.5;;;5.3;68.8
74437;BME280;62868;52.360;30.424;2023-04-03T07:41:18;1023.6;;;5.4;68.8
74437;BME280;62868;52.360;30.424;2023-04-03T07:46:26;1023.6;;;5.5;68.6
74437;BME280;62868;52.360;30.424;2023-04-03T07:51:12;1023.6;;;5.6;68.5
74437;BME280;62868;52.360;30.424;2023-04-03T07:56:34;1023.6;;;5.8;68.3
74437;BME280;62868;52.360;30.424;2023-04-03T08:00:54;1023.6;;;5.9;68.2
74437;BME280;62868;52.360;30.424;2023-04-03T08:06:02;1023.6;;;6;68.1
74437;BME280;62868;52.360;30.424;2023-04-03T08:11:24;1023.7;;;6.1;68
74437;BME280;62868;52.360;30.424;2023-04-03T08:16:34;1023.7;;;6;67.9
74437;BME280;62868;52.360;30.424;2023-04-03T08:21:05;1023.8;;;6;68
74437;BME280;62868;52.360;30.424;2023-04-03T08:25:54;1023.9;;;6;68
74437;BME280;62868;52.360;30.424;2023-04-03T08:31:12;1023.9;;;6.1;67.9
74437;BME280;62868;52.360;30.424;2023-04-03T08:36:19;1023.9;;;6;67.8
74437;BME280;62868;52.360;30.424;2023-04-03T08:41:36;1023.9;;;6;67.8
74437;BME280;62868;52.360;30.424;2023-04-03T08:46:13;1024;;;6;67.6
74437;BME280;62868;52.360;30.424;2023-04-03T08:50:55;1024;;;6;67.5
74437;BME280;62868;52.360;30.424;2023-04-03T08:56:32;1024;;;6;67.4
74437;BME280;62868;52.360;30.424;2023-04-03T09:01:24;1024.1;;;6.1;67.4
74437;BME280;62868;52.360;30.424;2023-04-03T09:06:34;1024.1;;;6.2;67.3
74437;BME280;62868;52.360;30.424;2023-04-03T09:11:13;1024.1;;;6.1;67.3
74437;BME280;62868;52.360;30.424;2023-04-03T09:16:04;1024.1;;;6.3;67.2
74437;BME280;62868;52.360;30.424;2023-04-03T09:21:13;1024.1;;;6.2;67.1
74437;BME280;62868;52.360;30.424;2023-04-03T09:26:24;1024.2;;;6.3;67
74437;BME280;62868;52.360;30.424;2023-04-03T09:31:36;1024.2;;;6.3;67.1
74437;BME280;62868;52.360;30.424;2023-04-03T09:35:54;1024.2;;;6.4;67
74437;BME280;62868;52.360;30.424;2023-04-03T09:41:02;1024.3;;;6.4;67
74437;BME280;62868;52.360;30.424;2023-04-03T09:45:54;1024.3;;;6.5;67
74437;BME280;62868;52.360;30.424;2023-04-03T09:51:34;1024.4;;;6.3;67.1
74437;BME280;62868;52.360;30.424;2023-04-03T09:56:23;1024.4;;;6.2;67.1
74437;BME280;62868;52.360;30.424;2023-04-03T10:01:20;1024.4;;;6.1;67.1
74437;BME280;62868;52.360;30.424;2023-04-03T10:06:21;1024.5;;;6;67.1
74437;BME280;62868;52.360;30.424;2023-04-03T10:11:14;1024.5;;;5.9;67.2
74437;BME280;62868;52.360;30.424;2023-04-03T10:16:14;1024.5;;;6;67.1
74437;BME280;62868;52.360;30.424;2023-04-03T10:21:39;1024.6;;;6;67
74437;BME280;62868;52.360;30.424;2023-04-03T10:26:15;1024.6;;;6;66.9
74437;BME280;62868;52.360;30.424;2023-04-03T10:31:04;1024.7;;;6;66.8
74437;BME280;62868;52.360;30.424;2023-04-03T10:36:07;1024.7;;;6;66.8
74437;BME280;62868;52.360;30.424;2023-04-03T10:41:23;1024.7;;;5.9;66.8
74437;BME280;62868;52.360;30.424;2023-04-03T10:46:36;1024.7;;;5.8;66.9
74437;BME280;62868;52.360;30.424;2023-04-03T10:50:56;1024.8;;;5.8;66.9
74437;BME280;62868;52.360;30.424;2023-04-03T10:55:55;1024.8;;;5.8;66.9
74437;BME280;62868;52.360;30.424;2023-04-03T11:01:19;1024.8;;;5.7;67
74437;BME280;62868;52.360;30.424;2023-04-03T11:06:24;1024.9;;;5.6;67.1
74437;BME280;62868;52.360;30.424;2023-04-03T11:11:38;1024.9;;;5.7;67.1
74437;BME280;62868;52.360;30.424;2023-04-03T11:16:14;1024.9;;;5.8;67
74437;BME280;62868;52.360;30.424;2023-04-03T11:21:04;1024.9;;;5.8;67
74437;BME280;62868;52.360;30.424;2023-04-03T11:26:12;1024.9;;;5.7;67
74437;BME280;62868;52.360;30.424;2023-04-03T11:31:07;1024.9;;;5.8;67
74437;BME280;62868;52.360;30.424;2023-04-03T11:36:39;1024.9;;;5.9;66.9
74437;BME280;62868;52.360;30.424;2023-04-03T11:41:04;1024.9;;;6;67
74437;BME280;62868;52.360;30.424;2023-04-03T11:46:14;1024.8;;;6;66.9
74437;BME280;62868;52.360;30.424;2023-04-03T11:51:45;1024.9;;;6;66.9
74437;BME280;62868;52.360;30.424;2023-04-03T11:56:27;1025;;;6.1;66.8
74437;BME280;62868;52.360;30.424;2023-04-03T12:01:46;1024.9;;;6;66.8
74437;BME280;62868;52.360;30.424;2023-04-03T12:06:58;1024.9;;;6;66.7
74437;BME280;62868;52.360;30.424;2023-04-03T12:11:14;1025;;;6;66.7
74437;BME280;62868;52.360;30.424;2023-04-03T12:16:19;1025;;;6.1;66.7
74437;BME280;62868;52.360;30.424;2023-04-03T12:21:24;1025;;;6.3;66.6
74437;BME280;62868;52.360;30.424;2023-04-03T12:26:38;1025;;;6.3;66.5
74437;BME280;62868;52.360;30.424;2023-04-03T12:31:31;1025;;;6.4;66.5
74437;BME280;62868;52.360;30.424;2023-04-03T12:36:04;1025;;;6.4;66.4
74437;BME280;62868;52.360;30.424;2023-04-03T12:41:18;1025.1;;;6.3;66.4
74437;BME280;62868;52.360;30.424;2023-04-03T12:46:24;1025.1;;;6.1;66.4
74437;BME280;62868;52.360;30.424;2023-04-03T12:51:39;1025.1;;;6;66.4
74437;BME280;62868;52.360;30.424;2023-04-03T12:56:25;1025.2;;;6;66.3
74437;BME280;62868;52.360;30.424;2023-04-03T13:01:04;1025.2;;;6;66.4
74437;BME280;62868;52.360;30.424;2023-04-03T13:05:54;1025.3;;;5.9;66.4
74437;BME280;62868;52.360;30.424;2023-04-03T13:11:24;1025.3;;;5.8;66.4
74437;BME280;62868;52.360;30.424;2023-04-03T13:16:34;1025.3;;;5.8;66.3
74437;BME280;62868;52.360;30.424;2023-04-03T13:21:15;1025.3;;;5.8;66.4
74437;BME280;62868;52.360;30.424;2023-04-03T13:25:54;1025.4;;;5.8;66.4
74437;BME280;62868;52.360;30.424;2023-04-03T13:31:06;1025.4;;;5.9;66.4
74437;BME280;62868;52.360;30.424;2023-04-03T13:36:24;1025.4;;;6;66.3
74437;BME280;62868;52.360;30.424;2023-04-03T13:41:38;1025.5;;;6;66.3
74437;BME280;62868;52.360;30.424;2023-04-03T13:46:25;1025.5;;;6;66.4
74437;BME280;62868;52.360;30.424;2023-04-03T13:50:55;1025.5;;;5.9;66.4
74437;BME280;62868;52.360;30.424;2023-04-03T13:56:17;1025.6;;;5.8;66.3
74437;BME280;62868;52.360;30.424;2023-04-03T14:01:24;1025.6;;;5.7;66.4
74437;BME280;62868;52.360;30.424;2023-04-03T14:06:16;1025.6;;;5.5;66.5
74437;BME280;62868;52.360;30.424;2023-04-03T14:11:26;1025.7;;;5.4;66.5
74437;BME280;62868;52.360;30.424;2023-04-03T14:16:22;1025.8;;;5.3;66.6
74437;BME280;62868;52.360;30.424;2023-04-03T14:21:16;1025.8;;;5.1;66.8
74437;BME280;62868;52.360;30.424;2023-04-03T14:26:24;1025.9;;;5.1;66.8
74437;BME280;62868;52.360;30.424;2023-04-03T14:31:38;1026;;;5;66.7
74437;BME280;62868;52.360;30.424;2023-04-03T14:36:24;1026;;;4.9;66.8
74437;BME280;62868;52.360;30.424;2023-04-03T14:41:17;1026;;;4.9;66.9
74437;BME280;62868;52.360;30.424;2023-04-03T14:45:54;1026;;;4.8;66.9
74437;BME280;62868;52.360;30.424;2023-04-03T14:51:24;1026.1;;;4.8;66.9
74437;BME280;62868;52.360;30.424;2023-04-03T14:56:21;1026.2;;;4.7;67
74437;BME280;62868;52.360;30.424;2023-04-03T15:01:38;1026.2;;;4.7;67
74437;BME280;62868;52.360;30.424;2023-04-03T15:06:08;1026.2;;;4.6;67
74437;BME280;62868;52.360;30.424;2023-04-03T15:10:54;1026.2;;;4.5;67.1
74437;BME280;62868;52.360;30.424;2023-04-03T15:16:38;1026.2;;;4.6;67
74437;BME280;62868;52.360;30.424;2023-04-03T15:21:24;1026.3;;;4.6;67.1
74437;BME280;62868;52.360;30.424;2023-04-03T15:26:38;1026.3;;;4.5;67.2
74437;BME280;62868;52.360;30.424;2023-04-03T15:31:24;1026.3;;;4.5;67.2
74437;BME280;62868;52.360;30.424;2023-04-03T15:36:14;1026.4;;;4.4;67.2
74437;BME280;62868;52.360;30.424;2023-04-03T15:41:04;1026.4;;;4.4;67.3
74437;BME280;62868;52.360;30.424;2023-04-03T15:46:42;1026.4;;;4.3;67.4
74437;BME280;62868;52.360;30.424;2023-04-03T15:51:36;1026.4;;;4.3;67.5
74437;BME280;62868;52.360;30.424;2023-04-03T15:55:54;1026.4;;;4.3;67.5
74437;BME280;62868;52.360;30.424;2023-04-03T16:01:38;1026.4;;;4.2;67.6
74437;BME280;62868;52.360;30.424;2023-04-03T16:05:54;1026.4;;;4.1;67.6
74437;BME280;62868;52.360;30.424;2023-04-03T16:11:20;1026.4;;;4.1;67.6
74437;BME280;62868;52.360;30.424;2023-04-03T16:16:38;1026.5;;;4.1;67.7
74437;BME280;62868;52.360;30.424;2023-04-03T16:20:54;1026.5;;;4.1;67.7
74437;BME280;62868;52.360;30.424;2023-04-03T16:26:40;1026.6;;;4;67.8
74437;BME280;62868;52.360;30.424;2023-04-03T16:30:54;1026.7;;;4;67.8
74437;BME280;62868;52.360;30.424;2023-04-03T16:36:16;1026.7;;;4;67.9
74437;BME280;62868;52.360;30.424;2023-04-03T16:41:40;1026.7;;;4;68
74437;BME280;62868;52.360;30.424;2023-04-03T16:46:04;1026.7;;;4;68
74437;BME280;62868;52.360;30.424;2023-04-03T16:51:40;1026.8;;;4;68
74437;BME280;62868;52.360;30.424;2023-04-03T16:56:04;1026.8;;;3.9;68
74437;BME280;62868;52.360;30.424;2023-04-03T17:01:22;1026.9;;;3.9;68.1
74437;BME280;62868;52.360;30.424;2023-04-03T17:06:40;1026.9;;;3.9;68.1
74437;BME280;62868;52.360;30.424;2023-04-03T17:11:10;1026.9;;;3.9;68.1
74437;BME280;62868;52.360;30.424;2023-04-03T17:16:40;1027;;;4;68.2
74437;BME280;62868;52.360;30.424;2023-04-03T17:20:54;1027;;;3.9;68.2
74437;BME280;62868;52.360;30.424;2023-04-03T17:26:22;1027;;;3.8;68.3
74437;BME280;62868;52.360;30.424;2023-04-03T17:31:10;1027.1;;;3.8;68.3
74437;BME280;62868;52.360;30.424;2023-04-03T17:36:04;1027.1;;;3.8;68.3
74437;BME280;62868;52.360;30.424;2023-04-03T17:41:40;1027.1;;;3.8;68.3
74437;BME280;62868;52.360;30.424;2023-04-03T17:45:58;1027.1;;;3.8;68.4
74437;BME280;62868;52.360;30.424;2023-04-03T17:51:22;1027.2;;;3.7;68.4
74437;BME280;62868;52.360;30.424;2023-04-03T17:55:54;1027.2;;;3.6;68.5
74437;BME280;62868;52.360;30.424;2023-04-03T18:01:10;1027.2;;;3.6;68.6
74437;BME280;62868;52.360;30.424;2023-04-03T18:06:41;1027.2;;;3.6;68.6
74437;BME280;62868;52.360;30.424;2023-04-03T18:11:08;1027.2;;;3.6;68.7
74437;BME280;62868;52.360;30.424;2023-04-03T18:16:18;1027.2;;;3.6;68.7
74437;BME280;62868;52.360;30.424;2023-04-03T18:21:02;1027.1;;;3.7;68.7
74437;BME280;62868;52.360;30.424;2023-04-03T18:26:08;1027.1;;;3.7;68.8
74437;BME280;62868;52.360;30.424;2023-04-03T18:31:38;1027.1;;;3.6;68.8
74437;BME280;62868;52.360;30.424;2023-04-03T18:35:52;1027.1;;;3.6;68.8
74437;BME280;62868;52.360;30.424;2023-04-03T18:41:23;1027.1;;;3.6;68.9
74437;BME280;62868;52.360;30.424;2023-04-03T18:46:04;1027;;;3.6;68.9
74437;BME280;62868;52.360;30.424;2023-04-03T18:51:10;1027.1;;;3.6;68.9
74437;BME280;62868;52.360;30.424;2023-04-03T18:56:40;1027;;;3.6;69
74437;BME280;62868;52.360;30.424;2023-04-03T19:00:54;1027;;;3.7;69
74437;BME280;62868;52.360;30.424;2023-04-03T19:06:22;1027;;;3.7;69
74437;BME280;62868;52.360;30.424;2023-04-03T19:11:04;1027.1;;;3.7;68.9
74437;BME280;62868;52.360;30.424;2023-04-03T19:16:10;1027.1;;;3.7;68.9
74437;BME280;62868;52.360;30.424;2023-04-03T19:21:40;1027.1;;;3.8;68.9
74437;BME280;62868;52.360;30.424;2023-04-03T19:26:05;1027;;;3.8;68.9
74437;BME280;62868;52.360;30.424;2023-04-03T19:31:22;1027.1;;;3.7;68.9
74437;BME280;62868;52.360;30.424;2023-04-03T19:35:54;1027.1;;;3.7;69
74437;BME280;62868;52.360;30.424;2023-04-03T19:41:04;1027.1;;;3.7;69
74437;BME280;62868;52.360;30.424;2023-04-03T19:46:40;1027.1;;;3.7;69
74437;BME280;62868;52.360;30.424;2023-04-03T19:51:02;1027;;;3.7;69
74437;BME280;62868;52.360;30.424;2023-04-03T19:56:22;1027;;;3.7;69
74437;BME280;62868;52.360;30.424;2023-04-03T20:01:14;1027;;;3.7;69
74437;BME280;62868;52.360;30.424;2023-04-03T20:06:10;1027;;;3.7;69
74437;BME280;62868;52.360;30.424;2023-04-03T20:11:40;1027;;;3.7;69
74437;BME280;62868;52.360;30.424;2023-04-03T20:16:04;1027;;;3.6;69.1
74437;BME280;62868;52.360;30.424;2023-04-03T20:21:16;1027;;;3.7;69
74437;BME280;62868;52.360;30.424;2023-04-03T20:26:05;1027;;;3.7;69
74437;BME280;62868;52.360;30.424;2023-04-03T20:31:26;1027;;;3.7;69.1
74437;BME280;62868;52.360;30.424;2023-04-03T20:36:40;1027;;;3.8;69
74437;BME280;62868;52.360;30.424;2023-04-03T20:41:10;1027;;;3.8;69
74437;BME280;62868;52.360;30.424;2023-04-03T20:46:22;1027;;;3.8;69
74437;BME280;62868;52.360;30.424;2023-04-03T20:50:54;1026.9;;;3.8;69
74437;BME280;62868;52.360;30.424;2023-04-03T20:56:04;1026.9;;;3.8;69
74437;BME280;62868;52.360;30.424;2023-04-03T21:01:40;1026.9;;;3.8;69
74437;BME280;62868;52.360;30.424;2023-04-03T21:21:00;1027;;;3.9;68.9
74437;BME280;62868;52.360;30.424;2023-04-03T21:26:40;1027;;;3.9;68.9
74437;BME280;62868;52.360;30.424;2023-04-03T21:31:10;1027;;;3.8;68.8
74437;BME280;62868;52.360;30.424;2023-04-03T21:36:06;1027;;;3.8;68.9
74437;BME280;62868;52.360;30.424;2023-04-03T21:40:54;1027;;;3.7;68.9
74437;BME280;62868;52.360;30.424;2023-04-03T21:46:04;1027.1;;;3.8;68.9
74437;BME280;62868;52.360;30.424;2023-04-03T21:51:40;1027.1;;;3.8;68.9
74437;BME280;62868;52.360;30.424;2023-04-03T21:55:54;1027.2;;;3.8;68.9
74437;BME280;62868;52.360;30.424;2023-04-03T22:01:22;1027.2;;;3.9;68.9
74437;BME280;62868;52.360;30.424;2023-04-03T22:05:56;1027.2;;;4;68.8
74437;BME280;62868;52.360;30.424;2023-04-03T22:11:11;1027.2;;;4;68.8
74437;BME280;62868;52.360;30.424;2023-04-03T22:16:38;1027.2;;;4;68.8
74437;BME280;62868;52.360;30.424;2023-04-03T22:21:04;1027.2;;;3.9;68.8
74437;BME280;62868;52.360;30.424;2023-04-03T22:26:22;1027.2;;;3.9;68.8
74437;BME280;62868;52.360;30.424;2023-04-03T22:31:04;1027.2;;;4;68.8
74437;BME280;62868;52.360;30.424;2023-04-03T22:36:10;1027.3;;;3.9;68.7
74437;BME280;62868;52.360;30.424;2023-04-03T22:41:38;1027.3;;;3.9;68.8
74437;BME280;62868;52.360;30.424;2023-04-03T22:46:10;1027.3;;;3.9;68.8
74437;BME280;62868;52.360;30.424;2023-04-03T22:51:02;1027.3;;;3.8;68.8
74437;BME280;62868;52.360;30.424;2023-04-03T22:55:54;1027.3;;;3.8;68.8
74437;BME280;62868;52.360;30.424;2023-04-03T23:01:05;1027.3;;;3.8;68.8
74437;BME280;62868;52.360;30.424;2023-04-03T23:06:38;1027.3;;;3.7;68.8
74437;BME280;62868;52.360;30.424;2023-04-03T23:11:10;1027.2;;;3.8;68.8
74437;BME280;62868;52.360;30.424;2023-04-03T23:16:22;1027.1;;;3.8;68.8
74437;BME280;62868;52.360;30.424;2023-04-03T23:20:54;1027.2;;;3.7;68.8
74437;BME280;62868;52.360;30.424;2023-04-03T23:26:22;1027.3;;;3.6;68.9
74437;BME280;62868;52.360;30.424;2023-04-03T23:31:36;1027.3;;;3.6;68.9
74437;BME280;62868;52.360;30.424;2023-04-03T23:36:08;1027.4;;;3.7;68.9
74437;BME280;62868;52.360;30.424;2023-04-03T23:40:54;1027.5;;;3.7;68.9
74437;BME280;62868;52.360;30.424;2023-04-03T23:45:54;1027.5;;;3.7;68.9
74437;BME280;62868;52.360;30.424;2023-04-03T23:51:08;1027.5;;;3.7;68.9
74437;BME280;62868;52.360;30.424;2023-04-03T23:56:34;1027.4;;;3.7;68.9
